Time;durP1;ratioP1;P1;durP2;ratioP2;P2;SDS_P1;SDS_P2;PMS_P1;PMS_P2;Temp;Humidity;BMP_temperature;BMP_pressure;BME280_temperature;BME280_humidity;BME280_pressure;Samples;Min_cycle;Max_cycle;Signal;HPM_P1;HPM_P2
2023/05/07 00:57:41;;;;;;;22.87;15.33;;;14.70;99.90;;;;;;4584310;19;20002;-23
2023/05/07 00:59:14;;;;;;;23.85;18.55;;;14.70;99.90;;;;;;4587748;19;20010;-23
2023/05/07 01:00:45;;;;;;;26.38;18.60;;;14.70;99.90;;;;;;4588193;19;20007;-23
2023/05/07 01:02:18;;;;;;;21.97;15.40;;;14.60;99.90;;;;;;4588563;19;20075;-23
2023/05/07 01:03:49;;;;;;;20.80;16.17;;;14.70;99.90;;;;;;4588734;19;20074;-23
2023/05/07 01:05:20;;;;;;;21.35;15.77;;;14.70;99.90;;;;;;4588755;19;20014;-23
2023/05/07 01:06:56;;;;;;;25.07;19.43;;;14.60;99.90;;;;;;4591965;19;20010;-23
2023/05/07 01:08:30;;;;;;;23.60;19.20;;;14.60;99.90;;;;;;4594079;19;20015;-23
2023/05/07 01:10:03;;;;;;;19.05;15.40;;;14.60;99.90;;;;;;4594369;19;20333;-23
2023/05/07 01:11:34;;;;;;;18.80;15.03;;;14.60;99.90;;;;;;4591331;19;20010;-23
2023/05/07 01:13:06;;;;;;;18.63;14.93;;;14.60;99.90;;;;;;4592343;19;20036;-24
2023/05/07 01:14:38;;;;;;;17.00;12.80;;;14.60;99.90;;;;;;4592352;19;20081;-23
2023/05/07 01:16:10;;;;;;;16.63;12.50;;;14.60;99.90;;;;;;4593304;19;20011;-23
2023/05/07 01:17:42;;;;;;;14.98;11.68;;;14.60;99.90;;;;;;4593485;19;20015;-23
2023/05/07 01:19:15;;;;;;;16.20;11.07;;;14.60;99.90;;;;;;4593163;19;20014;-23
2023/05/07 01:20:48;;;;;;;13.60;10.37;;;14.60;99.90;;;;;;4592338;19;20077;-23
2023/05/07 01:22:36;;;;;;;12.40;8.65;;;14.60;99.90;;;;;;4592784;19;20521;-23
2023/05/07 01:24:08;;;;;;;11.33;9.07;;;14.60;99.90;;;;;;4593213;19;20009;-23
2023/05/07 01:25:41;;;;;;;13.30;9.43;;;14.60;99.90;;;;;;4592191;19;20028;-23
2023/05/07 01:27:14;;;;;;;12.47;10.10;;;14.60;99.90;;;;;;4592117;19;20021;-23
2023/05/07 01:28:45;;;;;;;15.95;11.27;;;14.60;99.90;;;;;;4592237;19;20082;-23
2023/05/07 01:30:18;;;;;;;14.97;11.00;;;14.60;99.90;;;;;;4593341;19;20019;-23
2023/05/07 01:31:50;;;;;;;17.13;12.93;;;14.60;99.90;;;;;;4590811;19;20010;-23
2023/05/07 01:33:21;;;;;;;23.75;14.05;;;14.60;99.90;;;;;;4592459;19;20528;-23
2023/05/07 01:34:54;;;;;;;19.20;13.87;;;14.60;99.90;;;;;;4592743;19;20472;-24
2023/05/07 01:36:27;;;;;;;20.58;14.95;;;14.60;99.90;;;;;;4592037;19;20014;-23
2023/05/07 01:38:00;;;;;;;17.97;13.43;;;14.50;99.90;;;;;;4592031;19;20036;-23
2023/05/07 01:39:32;;;;;;;19.70;12.63;;;14.60;99.90;;;;;;4591929;19;20074;-23
2023/05/07 01:59:23;;;;;;;10.45;7.90;;;14.60;99.70;;;;;;4588136;19;20010;-23
2023/05/07 02:00:55;;;;;;;10.43;8.47;;;14.60;99.60;;;;;;4591230;19;20014;-23
2023/05/07 02:02:27;;;;;;;11.67;9.43;;;14.60;99.60;;;;;;4592574;19;20017;-23
2023/05/07 02:04:00;;;;;;;12.10;9.33;;;14.60;99.60;;;;;;4591869;19;20088;-23
2023/05/07 02:05:34;;;;;;;11.87;9.23;;;14.60;99.60;;;;;;4591196;19;20014;-23
2023/05/07 02:07:06;;;;;;;10.87;8.97;;;14.50;99.40;;;;;;4591934;19;20032;-23
2023/05/07 02:08:37;;;;;;;10.55;9.13;;;14.60;99.40;;;;;;4593019;19;20453;-23
2023/05/07 02:10:09;;;;;;;13.40;11.93;;;14.50;99.40;;;;;;4593337;19;20009;-23
2023/05/07 02:11:40;;;;;;;16.98;13.75;;;14.50;99.40;;;;;;4591325;19;20015;-24
2023/05/07 02:13:13;;;;;;;11.60;10.30;;;14.50;99.40;;;;;;4592449;19;20010;-23
2023/05/07 02:14:45;;;;;;;12.30;9.93;;;14.50;99.40;;;;;;4591741;19;20019;-23
2023/05/07 02:16:16;;;;;;;13.20;10.02;;;14.50;99.40;;;;;;4592167;19;19998;-23
2023/05/07 02:18:06;;;;;;;13.37;10.03;;;14.50;99.40;;;;;;4591777;19;20014;-23
2023/05/07 02:19:38;;;;;;;12.57;10.13;;;14.50;99.40;;;;;;4591408;19;20031;-23
2023/05/07 02:21:28;;;;;;;14.68;9.73;;;14.50;99.30;;;;;;4591414;19;20070;-23
2023/05/07 03:00:52;;;;;;;9.23;7.53;;;14.30;98.20;;;;;;4589372;19;20472;-23
2023/05/07 03:02:25;;;;;;;10.90;7.90;;;14.30;98.00;;;;;;4591621;19;20023;-24
2023/05/07 03:03:57;;;;;;;;;;;14.30;97.90;;;;;;4591036;19;20007;-24
2023/05/07 03:05:28;;;;;;;10.87;8.07;;;14.30;98.30;;;;;;4589531;19;20269;-23
2023/05/07 03:07:23;;;;;;;10.13;8.47;;;14.40;97.90;;;;;;4589286;19;20311;-23
2023/05/07 03:09:28;;;;;;;10.47;8.03;;;14.40;97.90;;;;;;4589213;19;20014;-23
2023/05/07 03:10:59;;;;;;;11.20;8.43;;;14.40;98.00;;;;;;4589177;19;20081;-23
2023/05/07 03:12:32;;;;;;;11.13;9.23;;;14.40;97.90;;;;;;4590684;19;20011;-23
2023/05/07 03:14:03;;;;;;;10.18;8.02;;;14.40;97.80;;;;;;4590083;19;20011;-23
2023/05/07 03:15:35;;;;;;;11.75;8.80;;;14.40;97.70;;;;;;4590899;19;20007;-23
2023/05/07 03:17:06;;;;;;;11.90;9.25;;;14.30;97.70;;;;;;4590043;19;20423;-23
2023/05/07 03:18:39;;;;;;;10.57;9.07;;;14.30;97.70;;;;;;4590465;19;20449;-23
2023/05/07 03:20:11;;;;;;;11.07;9.10;;;14.40;97.70;;;;;;4589884;19;20010;-23
2023/05/07 03:21:43;;;;;;;12.07;9.07;;;14.40;97.70;;;;;;4590570;19;20014;-23
2023/05/07 03:23:14;;;;;;;10.18;8.82;;;14.30;97.60;;;;;;4591572;19;20007;-23
2023/05/07 03:24:47;;;;;;;9.60;7.33;;;14.30;97.60;;;;;;4590799;19;20018;-23
2023/05/07 03:26:19;;;;;;;9.05;6.78;;;14.30;97.60;;;;;;4589789;19;20026;-23
2023/05/07 03:27:52;;;;;;;9.33;7.63;;;14.30;97.60;;;;;;4590074;19;19998;-23
2023/05/07 03:29:23;;;;;;;8.90;7.13;;;14.30;97.50;;;;;;4589277;19;20011;-23
2023/05/07 03:30:54;;;;;;;;;;;14.30;97.50;;;;;;4591314;19;20389;-23
2023/05/07 03:32:26;;;;;;;11.93;8.98;;;14.30;97.60;;;;;;4591104;19;19919;-23
2023/05/07 03:33:57;;;;;;;10.50;8.23;;;14.40;97.50;;;;;;4591249;19;19998;-23
2023/05/07 03:35:30;;;;;;;16.63;13.83;;;14.30;97.50;;;;;;4590291;19;20440;-23
2023/05/07 03:37:03;;;;;;;16.20;11.90;;;14.30;97.50;;;;;;4589351;19;20019;-23
2023/05/07 03:38:34;;;;;;;12.02;9.27;;;14.30;97.70;;;;;;4590241;19;20412;-23
2023/05/07 03:40:08;;;;;;;11.57;9.00;;;14.30;97.40;;;;;;4591192;19;20019;-23
2023/05/07 03:41:39;;;;;;;10.50;8.63;;;14.30;97.50;;;;;;4590484;19;20015;-23
2023/05/07 03:43:11;;;;;;;;;;;14.30;97.50;;;;;;4591495;19;20030;-23
2023/05/07 03:44:42;;;;;;;10.77;8.23;;;14.30;97.60;;;;;;4589515;19;20003;-23
2023/05/07 03:46:14;;;;;;;9.67;7.53;;;14.30;97.60;;;;;;4590014;19;20491;-24
2023/05/07 03:47:45;;;;;;;9.27;7.18;;;14.30;97.50;;;;;;4590118;19;20010;-23
2023/05/07 03:49:19;;;;;;;12.70;8.43;;;14.30;97.60;;;;;;4590401;19;20078;-23
2023/05/07 03:50:50;;;;;;;11.43;9.55;;;14.30;97.60;;;;;;4590662;19;20039;-23
2023/05/07 03:52:25;;;;;;;13.40;10.60;;;14.30;97.70;;;;;;4589343;19;20014;-23
2023/05/07 03:53:57;;;;;;;19.00;13.10;;;14.30;97.70;;;;;;4589039;19;20064;-23
2023/05/07 03:55:29;;;;;;;18.17;12.90;;;14.30;97.70;;;;;;4589341;19;20014;-23
2023/05/07 03:57:00;;;;;;;17.95;10.73;;;14.30;97.80;;;;;;4588022;19;19998;-23
2023/05/07 03:58:31;;;;;;;18.33;11.90;;;14.30;97.80;;;;;;4589316;19;20010;-23
2023/05/07 04:00:06;;;;;;;17.13;12.63;;;14.30;97.80;;;;;;4588895;19;20529;-24
2023/05/07 04:01:37;;;;;;;18.23;12.97;;;14.30;97.80;;;;;;4590038;19;20319;-23
2023/05/07 04:03:08;;;;;;;19.30;13.27;;;14.30;97.90;;;;;;4587965;19;20013;-23
2023/05/07 04:04:41;;;;;;;17.33;13.10;;;14.30;97.90;;;;;;4589471;19;20010;-23
2023/05/07 04:06:13;;;;;;;;;;;14.30;97.90;;;;;;4589751;19;20074;-24
2023/05/07 04:07:44;;;;;;;17.47;12.63;;;14.30;98.00;;;;;;4589693;19;20307;-23
2023/05/07 04:09:15;;;;;;;15.13;10.52;;;14.30;97.90;;;;;;4590733;19;20349;-23
2023/05/07 04:10:47;;;;;;;15.70;11.60;;;14.30;98.00;;;;;;4590021;19;20013;-23
2023/05/07 04:12:19;;;;;;;17.17;11.98;;;14.30;98.10;;;;;;4587482;19;20014;-23
2023/05/07 04:13:50;;;;;;;;;;;14.30;98.10;;;;;;4590272;19;20048;-23
2023/05/07 04:15:21;;;;;;;17.03;12.30;;;14.30;98.20;;;;;;4589107;19;20285;-23
2023/05/07 04:16:52;;;;;;;16.80;12.60;;;14.30;98.30;;;;;;4589594;19;20010;-23
2023/05/07 04:18:23;;;;;;;16.08;13.68;;;14.30;98.30;;;;;;4590369;19;20015;-23
2023/05/07 04:19:54;;;;;;;18.70;12.75;;;14.30;98.40;;;;;;4589134;19;20027;-23
2023/05/07 04:21:26;;;;;;;16.08;13.75;;;14.30;98.50;;;;;;4590220;19;20009;-23
2023/05/07 04:22:57;;;;;;;17.10;12.23;;;14.30;98.50;;;;;;4589830;19;20014;-23
2023/05/07 04:24:32;;;;;;;16.17;12.57;;;14.30;98.60;;;;;;4590126;19;20018;-23
2023/05/07 04:26:03;;;;;;;16.27;12.37;;;14.30;98.70;;;;;;4588495;19;20453;-23
2023/05/07 04:27:35;;;;;;;15.27;11.63;;;14.40;98.70;;;;;;4589832;19;20006;-23
2023/05/07 04:29:07;;;;;;;12.80;10.77;;;14.30;98.80;;;;;;4588604;19;20015;-23
2023/05/07 04:30:41;;;;;;;12.73;10.90;;;14.40;98.80;;;;;;4588791;19;20077;-23
2023/05/07 04:32:13;;;;;;;14.43;9.90;;;14.40;98.90;;;;;;4587884;19;20007;-23
2023/05/07 04:33:46;;;;;;;12.40;10.57;;;14.30;99.00;;;;;;4589263;19;20017;-23
2023/05/07 04:35:18;;;;;;;14.57;10.60;;;14.40;99.10;;;;;;4589882;19;20100;-23
2023/05/07 04:36:51;;;;;;;11.77;9.40;;;14.40;99.20;;;;;;4588946;19;20091;-24
2023/05/07 04:38:23;;;;;;;12.20;9.93;;;14.40;99.30;;;;;;4588918;19;20574;-23
2023/05/07 04:39:55;;;;;;;15.15;10.98;;;14.40;99.40;;;;;;4589101;19;20007;-23
2023/05/07 04:41:26;;;;;;;14.77;10.35;;;14.40;99.50;;;;;;4590975;19;20032;-23
2023/05/07 04:42:57;;;;;;;12.68;10.75;;;14.40;99.50;;;;;;4591867;19;20018;-24
2023/05/07 04:44:30;;;;;;;13.25;9.95;;;14.40;99.60;;;;;;4594537;19;20018;-23
2023/05/07 04:46:03;;;;;;;11.93;10.63;;;14.50;99.80;;;;;;4593978;19;20031;-23
2023/05/07 04:47:35;;;;;;;;;;;14.50;99.90;;;;;;4595197;19;20022;-23
2023/05/07 04:49:06;;;;;;;12.60;9.63;;;14.50;99.90;;;;;;4593281;19;19921;-23
2023/05/07 04:50:38;;;;;;;12.70;9.13;;;14.50;99.90;;;;;;4594208;19;20040;-23
2023/05/07 04:52:10;;;;;;;12.53;9.13;;;14.50;99.90;;;;;;4592422;19;20014;-23
2023/05/07 04:53:43;;;;;;;11.60;8.57;;;14.50;99.90;;;;;;4590479;19;20032;-23
2023/05/07 04:55:17;;;;;;;12.53;9.40;;;14.50;99.90;;;;;;4593098;19;20018;-23
2023/05/07 04:56:54;;;;;;;11.90;9.23;;;14.50;99.90;;;;;;4594924;19;20074;-23
2023/05/07 04:58:25;;;;;;;11.48;9.70;;;14.50;99.90;;;;;;4592375;19;20014;-23
2023/05/07 04:59:56;;;;;;;;;;;14.50;99.90;;;;;;4594533;19;20013;-23
2023/05/07 05:01:28;;;;;;;12.40;8.97;;;14.50;99.90;;;;;;4592613;19;19991;-23
2023/05/07 05:03:02;;;;;;;10.02;8.15;;;14.60;99.90;;;;;;4594206;19;20113;-23
2023/05/07 05:04:39;;;;;;;13.87;10.03;;;14.60;99.90;;;;;;4593610;19;20033;-23
2023/05/07 05:06:13;;;;;;;11.73;8.93;;;14.60;99.90;;;;;;4593219;19;20238;-23
2023/05/07 05:07:44;;;;;;;12.38;8.70;;;14.60;99.90;;;;;;4593329;19;20018;-23
2023/05/07 05:09:16;;;;;;;13.32;10.05;;;14.60;99.90;;;;;;4593781;19;20476;-23
2023/05/07 05:10:50;;;;;;;11.95;9.77;;;14.60;99.90;;;;;;4594547;19;20082;-23
2023/05/07 05:12:21;;;;;;;12.30;10.53;;;14.60;99.90;;;;;;4591954;19;20010;-24
2023/05/07 05:13:53;;;;;;;11.25;9.32;;;14.60;99.90;;;;;;4592979;19;20014;-23
2023/05/07 05:15:24;;;;;;;13.13;9.27;;;14.60;99.90;;;;;;4593805;19;20079;-23
2023/05/07 05:16:55;;;;;;;12.35;8.88;;;14.60;99.90;;;;;;4592617;19;20018;-23
2023/05/07 05:18:28;;;;;;;11.95;9.25;;;14.60;99.90;;;;;;4594350;19;20011;-23
2023/05/07 05:20:00;;;;;;;11.40;9.13;;;14.60;99.90;;;;;;4592482;19;20015;-23
2023/05/07 05:21:32;;;;;;;13.60;8.70;;;14.70;99.90;;;;;;4593324;19;20476;-23
2023/05/07 05:23:03;;;;;;;11.32;8.68;;;14.70;99.90;;;;;;4592991;19;20366;-23
2023/05/07 05:24:35;;;;;;;11.93;9.35;;;14.70;99.90;;;;;;4592410;19;20165;-23
2023/05/07 05:26:06;;;;;;;;;;;14.70;99.90;;;;;;4593493;19;20010;-24
2023/05/07 05:27:38;;;;;;;14.23;9.20;;;14.70;99.90;;;;;;4594065;19;20341;-23
2023/05/07 05:29:10;;;;;;;11.48;9.18;;;14.70;99.90;;;;;;4591704;19;20044;-24
2023/05/07 05:30:41;;;;;;;12.55;9.45;;;14.70;99.90;;;;;;4593016;19;20014;-23
2023/05/07 05:32:13;;;;;;;11.97;8.87;;;14.70;99.90;;;;;;4591470;19;20014;-23
2023/05/07 05:33:45;;;;;;;13.18;9.95;;;14.70;99.90;;;;;;4593288;19;20015;-23
2023/05/07 05:35:16;;;;;;;12.70;9.93;;;14.70;99.90;;;;;;4592866;19;20014;-23
2023/05/07 05:36:48;;;;;;;;;;;14.80;99.90;;;;;;4594128;19;20014;-24
2023/05/07 05:38:20;;;;;;;14.30;11.18;;;14.80;99.90;;;;;;4594229;19;19915;-23
2023/05/07 05:39:54;;;;;;;14.23;10.37;;;14.80;99.90;;;;;;4592762;19;20051;-23
2023/05/07 05:41:26;;;;;;;13.17;10.37;;;14.70;99.90;;;;;;4593221;19;20022;-23
2023/05/07 05:42:58;;;;;;;11.00;9.33;;;14.80;99.90;;;;;;4591620;19;20133;-23
2023/05/07 05:44:29;;;;;;;11.35;8.18;;;14.70;99.90;;;;;;4593746;19;20014;-24
2023/05/07 05:46:00;;;;;;;11.00;8.13;;;14.80;99.90;;;;;;4591865;19;20021;-23
2023/05/07 05:47:31;;;;;;;9.85;7.60;;;14.80;99.90;;;;;;4591652;19;20010;-23
2023/05/07 05:49:02;;;;;;;10.40;7.43;;;14.80;99.90;;;;;;4592604;19;20077;-23
2023/05/07 05:50:35;;;;;;;10.35;6.93;;;14.80;99.90;;;;;;4591111;19;20026;-23
2023/05/07 05:52:06;;;;;;;10.33;7.33;;;14.80;99.90;;;;;;4590820;19;20025;-23
2023/05/07 05:53:37;;;;;;;10.15;7.30;;;14.90;99.90;;;;;;4592147;19;20014;-23
2023/05/07 05:55:09;;;;;;;11.88;7.70;;;14.80;99.90;;;;;;4592562;19;20031;-24
2023/05/07 05:56:40;;;;;;;10.48;6.82;;;14.90;99.90;;;;;;4592478;19;20081;-23
2023/05/07 05:58:11;;;;;;;11.77;7.50;;;14.90;99.90;;;;;;4591383;19;20055;-23
2023/05/07 05:59:42;;;;;;;13.88;8.98;;;14.90;99.90;;;;;;4589878;19;20011;-23
2023/05/07 06:01:13;;;;;;;9.63;6.68;;;14.90;99.90;;;;;;4590651;19;20571;-24
2023/05/07 06:02:44;;;;;;;10.48;7.63;;;15.00;99.90;;;;;;4591637;19;20523;-23
2023/05/07 06:04:16;;;;;;;11.88;7.63;;;15.00;99.90;;;;;;4590165;19;20034;-23
2023/05/07 06:05:47;;;;;;;9.23;7.03;;;15.10;99.90;;;;;;4589776;19;20015;-23
2023/05/07 06:07:19;;;;;;;9.05;6.90;;;15.10;99.90;;;;;;4592079;19;20010;-23
2023/05/07 06:08:51;;;;;;;10.55;7.45;;;15.20;99.90;;;;;;4590689;19;20021;-23
2023/05/07 06:10:22;;;;;;;11.80;6.93;;;15.20;99.90;;;;;;4590458;19;20011;-23
2023/05/07 06:11:53;;;;;;;9.75;7.03;;;15.20;99.90;;;;;;4589394;19;20003;-24
2023/05/07 06:13:27;;;;;;;10.05;7.25;;;15.20;99.90;;;;;;4590083;19;20017;-23
2023/05/07 06:14:58;;;;;;;9.77;6.70;;;15.20;99.90;;;;;;4590250;19;20014;-23
2023/05/07 06:16:29;;;;;;;;;;;15.30;99.90;;;;;;4590924;19;20027;-24
2023/05/07 06:18:01;;;;;;;13.48;7.53;;;15.30;99.90;;;;;;4589469;19;19923;-23
2023/05/07 06:19:32;;;;;;;11.80;7.13;;;15.30;99.90;;;;;;4589081;19;20041;-23
2023/05/07 06:21:03;;;;;;;8.63;5.47;;;15.30;99.90;;;;;;4588756;19;20481;-23
2023/05/07 06:22:36;;;;;;;9.40;5.97;;;15.30;99.90;;;;;;4588517;19;20015;-23
2023/05/07 06:24:07;;;;;;;8.65;5.30;;;15.30;99.90;;;;;;4588289;19;20014;-23
2023/05/07 06:25:38;;;;;;;9.20;5.72;;;15.30;99.90;;;;;;4590876;19;20015;-24
2023/05/07 06:27:09;;;;;;;8.82;5.40;;;15.30;99.90;;;;;;4590572;19;20026;-24
2023/05/07 06:28:40;;;;;;;7.88;6.03;;;15.30;99.90;;;;;;4590291;19;20087;-24
2023/05/07 06:30:12;;;;;;;7.25;5.50;;;15.30;99.90;;;;;;4589668;19;20087;-23
2023/05/07 06:31:45;;;;;;;9.23;6.97;;;15.20;99.90;;;;;;4589267;19;20015;-23
2023/05/07 06:33:16;;;;;;;9.25;6.82;;;13.40;99.90;;;;;;4590658;19;20014;-23
2023/05/07 06:34:47;;;;;;;8.98;6.57;;;12.20;99.90;;;;;;4591025;19;20018;-23
2023/05/07 06:36:18;;;;;;;9.88;6.75;;;11.60;99.90;;;;;;4590347;19;20018;-23
2023/05/07 06:37:49;;;;;;;7.95;6.78;;;11.40;99.90;;;;;;4590079;19;20014;-22
2023/05/07 06:39:20;;;;;;;8.48;6.40;;;11.20;99.90;;;;;;4590112;19;20358;-22
2023/05/07 06:40:54;;;;;;;8.25;7.10;;;11.20;99.90;;;;;;4592703;19;20010;-22
2023/05/07 06:42:26;;;;;;;12.63;7.80;;;11.10;99.90;;;;;;4591475;19;20021;-23
2023/05/07 06:43:58;;;;;;;7.97;6.73;;;11.10;99.90;;;;;;4590629;19;20460;-22
2023/05/07 06:45:29;;;;;;;8.38;6.28;;;11.10;99.90;;;;;;4591224;19;21053;-22
2023/05/07 06:47:01;;;;;;;9.15;6.60;;;11.10;99.90;;;;;;4590852;19;20011;-22
2023/05/07 06:48:32;;;;;;;9.13;6.75;;;11.10;99.90;;;;;;4590629;19;20011;-22
2023/05/07 06:50:04;;;;;;;;;;;11.10;99.90;;;;;;4590217;19;20006;-22
2023/05/07 06:51:35;;;;;;;7.93;6.90;;;11.20;99.90;;;;;;4589030;19;19922;-22
2023/05/07 06:53:06;;;;;;;7.85;6.68;;;11.20;99.90;;;;;;4589725;19;21053;-22
2023/05/07 06:54:37;;;;;;;;;;;11.20;99.90;;;;;;4590816;19;20021;-23
2023/05/07 06:56:09;;;;;;;8.57;7.00;;;11.20;99.90;;;;;;4591886;19;19918;-22
2023/05/07 06:57:40;;;;;;;7.22;6.20;;;11.20;99.90;;;;;;4592162;19;20073;-22
2023/05/07 06:59:12;;;;;;;8.45;6.75;;;11.20;99.90;;;;;;4591452;19;20085;-22
2023/05/07 07:00:44;;;;;;;7.45;5.95;;;11.20;99.90;;;;;;4588648;19;20022;-22
2023/05/07 07:02:15;;;;;;;8.70;6.65;;;11.20;99.90;;;;;;4590276;19;20035;-22
2023/05/07 07:03:47;;;;;;;;;;;11.20;99.90;;;;;;4589582;19;20763;-22
2023/05/07 07:05:18;;;;;;;8.90;6.53;;;11.20;99.90;;;;;;4589219;19;19915;-22
2023/05/07 07:06:49;;;;;;;8.55;6.43;;;11.20;99.90;;;;;;4589557;19;20018;-22
2023/05/07 07:08:21;;;;;;;7.05;6.05;;;11.30;99.90;;;;;;4592164;19;20011;-22
2023/05/07 07:09:52;;;;;;;8.27;6.50;;;11.30;99.90;;;;;;4591485;19;20018;-23
2023/05/07 07:11:23;;;;;;;9.15;6.43;;;11.30;99.90;;;;;;4590694;19;20018;-23
2023/05/07 07:12:55;;;;;;;7.60;6.40;;;11.30;99.90;;;;;;4590338;19;20085;-22
2023/05/07 07:14:26;;;;;;;7.00;5.38;;;11.30;99.90;;;;;;4591477;19;20019;-22
2023/05/07 07:15:58;;;;;;;6.25;5.57;;;11.30;99.90;;;;;;4591194;19;20491;-22
2023/05/07 07:17:29;;;;;;;6.45;4.90;;;11.30;99.90;;;;;;4590934;19;20014;-23
2023/05/07 07:19:01;;;;;;;7.03;5.23;;;11.40;99.90;;;;;;4590132;19;20006;-22
2023/05/07 07:20:32;;;;;;;8.20;6.22;;;11.40;99.90;;;;;;4590678;19;20456;-22
2023/05/07 07:22:03;;;;;;;;;;;11.40;99.90;;;;;;4591603;19;20027;-23
2023/05/07 07:23:35;;;;;;;10.13;7.87;;;11.40;99.90;;;;;;4590323;19;19915;-23
2023/05/07 07:25:06;;;;;;;8.38;6.68;;;11.50;99.90;;;;;;4591109;19;20007;-22
2023/05/07 07:26:39;;;;;;;17.20;14.68;;;11.50;99.90;;;;;;4590920;19;20468;-22
2023/05/07 07:28:11;;;;;;;14.17;11.97;;;11.40;99.90;;;;;;4590352;19;20124;-22
2023/05/07 07:29:42;;;;;;;12.30;11.10;;;11.40;99.90;;;;;;4590680;19;20531;-22
2023/05/07 07:31:15;;;;;;;9.23;8.33;;;11.50;99.90;;;;;;4591439;19;20007;-22
2023/05/07 07:32:46;;;;;;;6.07;4.55;;;11.50;99.90;;;;;;4590559;19;20468;-22
2023/05/07 07:34:17;;;;;;;9.63;8.07;;;11.50;99.90;;;;;;4589854;19;20014;-22
2023/05/07 07:35:49;;;;;;;8.40;7.40;;;11.50;99.90;;;;;;4590325;19;20021;-23
2023/05/07 07:37:21;;;;;;;10.20;8.05;;;11.80;99.90;;;;;;4588683;19;20850;-23
2023/05/07 07:38:52;;;;;;;6.80;5.57;;;12.10;99.90;;;;;;4589265;19;20461;-23
2023/05/07 07:40:24;;;;;;;;;;;12.50;99.90;;;;;;4590565;19;20030;-23
2023/05/07 07:41:55;;;;;;;5.60;4.30;;;12.80;99.90;;;;;;4590627;19;19910;-23
2023/05/07 07:43:26;;;;;;;10.18;5.30;;;13.00;99.90;;;;;;4591027;19;20031;-24
2023/05/07 07:44:58;;;;;;;6.43;3.95;;;13.20;99.90;;;;;;4590650;19;20018;-23
2023/05/07 07:46:29;;;;;;;6.43;3.03;;;13.40;99.90;;;;;;4590721;19;20478;-23
2023/05/07 07:48:01;;;;;;;5.23;3.30;;;13.60;99.90;;;;;;4590551;19;20003;-23
2023/05/07 07:49:33;;;;;;;6.83;3.70;;;13.70;99.90;;;;;;4590371;19;20010;-24
2023/05/07 07:51:05;;;;;;;4.65;3.30;;;13.80;99.90;;;;;;4590474;19;20062;-23
2023/05/07 07:52:36;;;;;;;5.30;3.50;;;14.00;99.90;;;;;;4590558;19;20397;-23
2023/05/07 07:54:08;;;;;;;5.35;3.10;;;14.00;99.90;;;;;;4590456;19;20014;-23
2023/05/07 07:55:40;;;;;;;5.17;3.27;;;14.10;99.90;;;;;;4590218;19;20006;-23
2023/05/07 07:57:11;;;;;;;5.45;3.80;;;14.20;99.90;;;;;;4589417;19;20010;-23
2023/05/07 07:58:43;;;;;;;7.65;3.33;;;14.30;99.90;;;;;;4589810;19;20018;-23
2023/05/07 08:00:15;;;;;;;7.72;3.65;;;14.40;99.90;;;;;;4589708;19;20353;-23
2023/05/07 08:01:48;;;;;;;6.00;3.97;;;14.40;99.90;;;;;;4590420;19;20039;-23
2023/05/07 08:03:19;;;;;;;4.83;3.77;;;14.50;99.90;;;;;;4589005;19;20342;-23
2023/05/07 08:04:51;;;;;;;4.68;3.17;;;14.50;99.90;;;;;;4589018;19;20461;-23
2023/05/07 08:06:22;;;;;;;5.50;3.38;;;14.60;99.90;;;;;;4586015;19;20014;-23
2023/05/07 08:07:54;;;;;;;6.32;5.13;;;14.60;99.90;;;;;;4589936;19;20015;-23
2023/05/07 08:09:25;;;;;;;6.05;4.38;;;14.70;99.90;;;;;;4589158;19;20018;-23
2023/05/07 08:10:56;;;;;;;6.25;5.20;;;14.70;99.90;;;;;;4589767;19;20018;-23
2023/05/07 08:12:27;;;;;;;6.68;4.63;;;14.80;99.90;;;;;;4587594;19;20022;-23
2023/05/07 08:14:00;;;;;;;8.70;7.75;;;14.80;99.90;;;;;;4589513;19;20048;-23
2023/05/07 08:15:31;;;;;;;8.15;4.85;;;14.90;99.90;;;;;;4589436;19;20006;-23
2023/05/07 08:17:02;;;;;;;6.95;3.60;;;14.90;99.90;;;;;;4590263;19;20039;-23
2023/05/07 08:18:33;;;;;;;5.78;3.88;;;14.90;99.90;;;;;;4588633;19;20014;-23
2023/05/07 08:20:05;;;;;;;5.57;3.85;;;14.90;99.90;;;;;;4588747;19;20011;-23
2023/05/07 08:21:39;;;;;;;4.78;3.78;;;15.00;99.90;;;;;;4589105;19;20006;-25
2023/05/07 08:23:10;;;;;;;6.57;3.50;;;15.00;99.90;;;;;;4590267;19;20018;-24
2023/05/07 08:24:41;;;;;;;8.77;4.32;;;15.00;99.90;;;;;;4589612;19;20014;-23
2023/05/07 08:26:13;;;;;;;6.72;5.38;;;15.00;99.90;;;;;;4590056;19;20021;-23
2023/05/07 08:27:44;;;;;;;6.80;5.53;;;15.00;99.90;;;;;;4589969;19;20022;-23
2023/05/07 08:29:15;;;;;;;9.95;4.68;;;15.00;99.90;;;;;;4589257;19;20491;-23
2023/05/07 08:30:47;;;;;;;7.95;4.97;;;15.10;99.90;;;;;;4589099;19;20014;-23
2023/05/07 08:32:18;;;;;;;;;;;15.10;99.90;;;;;;4589710;19;20092;-23
2023/05/07 08:33:50;;;;;;;6.15;3.70;;;15.10;99.90;;;;;;4590363;19;19918;-23
2023/05/07 08:35:22;;;;;;;7.38;5.68;;;15.10;99.90;;;;;;4588392;19;20035;-23
2023/05/07 08:36:53;;;;;;;5.30;4.10;;;15.10;99.90;;;;;;4588640;19;20018;-23
2023/05/07 08:38:25;;;;;;;6.47;3.22;;;15.10;99.90;;;;;;4589517;19;20010;-23
2023/05/07 08:39:56;;;;;;;6.35;3.72;;;15.20;99.90;;;;;;4590338;19;20020;-24
2023/05/07 08:41:46;;;;;;;6.90;3.60;;;15.20;99.90;;;;;;4588103;19;20018;-23
2023/05/07 08:43:20;;;;;;;;;;;15.20;99.90;;;;;;4589334;19;20050;-23
2023/05/07 08:44:55;;;;;;;6.95;4.00;;;15.20;99.90;;;;;;4588511;19;19936;-23
2023/05/07 08:46:28;;;;;;;5.82;3.20;;;15.20;99.90;;;;;;4587594;19;20108;-23
2023/05/07 08:48:01;;;;;;;4.88;2.88;;;15.20;99.90;;;;;;4588774;19;20015;-23
2023/05/07 08:49:33;;;;;;;7.50;4.40;;;15.20;99.90;;;;;;4588065;19;20015;-23
2023/05/07 08:51:05;;;;;;;6.43;3.78;;;15.20;99.90;;;;;;4588328;19;20014;-23
2023/05/07 08:52:36;;;;;;;6.28;4.25;;;15.20;99.90;;;;;;4589443;19;20461;-23
2023/05/07 08:54:08;;;;;;;4.75;3.75;;;15.20;99.90;;;;;;4588012;19;20006;-23
2023/05/07 08:55:39;;;;;;;;;;;15.20;99.90;;;;;;4589235;19;20007;-23
2023/05/07 08:57:11;;;;;;;5.07;3.25;;;15.20;99.90;;;;;;4588074;19;20265;-23
2023/05/07 08:58:43;;;;;;;5.25;4.07;;;15.20;99.90;;;;;;4588371;19;20015;-23
2023/05/07 09:00:15;;;;;;;5.13;3.25;;;15.30;99.90;;;;;;4587588;19;20041;-23
2023/05/07 09:01:46;;;;;;;3.03;2.42;;;15.30;99.90;;;;;;4588297;19;20038;-23
2023/05/07 09:03:17;;;;;;;4.78;2.45;;;15.30;99.90;;;;;;4588072;19;20025;-23
2023/05/07 09:04:50;;;;;;;5.03;2.80;;;15.30;99.90;;;;;;4588969;19;20011;-23
2023/05/07 09:06:22;;;;;;;5.35;3.00;;;15.30;99.90;;;;;;4589453;19;20457;-23
2023/05/07 09:07:55;;;;;;;3.83;2.78;;;15.30;99.90;;;;;;4589581;19;20014;-23
2023/05/07 09:09:27;;;;;;;4.10;2.67;;;15.30;99.90;;;;;;4588398;19;20019;-24
2023/05/07 09:10:58;;;;;;;4.10;2.63;;;15.30;99.90;;;;;;4588123;19;20486;-23
2023/05/07 09:12:30;;;;;;;4.13;2.50;;;15.40;99.90;;;;;;4586797;19;20015;-23
2023/05/07 09:14:03;;;;;;;4.90;3.40;;;15.40;99.90;;;;;;4588213;19;20039;-23
2023/05/07 09:15:35;;;;;;;5.35;2.78;;;15.40;99.90;;;;;;4588340;19;20018;-23
2023/05/07 09:17:07;;;;;;;3.67;2.20;;;15.40;99.90;;;;;;4589145;19;20015;-23
2023/05/07 09:18:44;;;;;;;4.10;2.33;;;15.30;99.90;;;;;;4589194;19;20011;-23
2023/05/07 09:20:17;;;;;;;4.72;2.25;;;15.30;99.80;;;;;;4588726;19;20010;-23
2023/05/07 09:21:49;;;;;;;4.10;2.40;;;15.30;99.90;;;;;;4588170;19;20074;-23
2023/05/07 09:23:20;;;;;;;6.13;2.38;;;15.30;99.80;;;;;;4588741;19;20012;-23
2023/05/07 09:24:52;;;;;;;3.85;2.28;;;15.20;99.80;;;;;;4587811;19;20010;-23
2023/05/07 09:26:25;;;;;;;3.42;2.55;;;15.30;99.90;;;;;;4588079;19;20039;-23
2023/05/07 09:27:57;;;;;;;5.85;3.00;;;15.40;99.60;;;;;;4590494;19;20003;-23
2023/05/07 09:29:29;;;;;;;;;;;15.40;99.70;;;;;;4592723;19;20378;-23
2023/05/07 09:31:01;;;;;;;5.45;3.20;;;15.40;99.90;;;;;;4593144;19;19925;-23
2023/05/07 09:32:37;;;;;;;6.70;4.10;;;15.50;99.60;;;;;;4592261;19;20018;-23
2023/05/07 09:34:10;;;;;;;4.57;3.05;;;15.50;99.30;;;;;;4592695;19;20524;-23
2023/05/07 09:35:41;;;;;;;4.07;3.10;;;15.50;99.70;;;;;;4592796;19;20013;-23
2023/05/07 09:37:14;;;;;;;4.43;2.55;;;15.50;99.70;;;;;;4591918;19;20093;-23
2023/05/07 09:38:47;;;;;;;4.80;4.20;;;15.50;99.50;;;;;;4592386;19;20040;-23
2023/05/07 09:40:25;;;;;;;4.22;3.63;;;15.50;99.50;;;;;;4592337;19;20046;-23
2023/05/07 09:41:58;;;;;;;4.78;3.30;;;15.60;99.90;;;;;;4591444;19;20476;-23
2023/05/07 09:43:34;;;;;;;4.78;3.15;;;15.70;99.90;;;;;;4593221;19;20032;-23
2023/05/07 09:45:10;;;;;;;3.55;3.00;;;15.80;99.80;;;;;;4592331;19;20018;-23
2023/05/07 09:46:44;;;;;;;3.33;2.58;;;16.00;99.60;;;;;;4591763;19;20492;-23
2023/05/07 09:48:16;;;;;;;3.38;2.40;;;16.10;99.30;;;;;;4592602;19;20406;-23
2023/05/07 09:49:48;;;;;;;4.35;2.03;;;16.10;99.10;;;;;;4591454;19;20010;-23
2023/05/07 09:51:38;;;;;;;4.57;2.33;;;16.10;98.70;;;;;;4591510;19;20017;-23
2023/05/07 09:53:10;;;;;;;5.30;2.67;;;16.00;99.00;;;;;;4591603;19;20010;-23